Time;durP1;ratioP1;P1;durP2;ratioP2;P2;SDS_P1;SDS_P2;PMS_P1;PMS_P2;Temp;Humidity;BMP_temperature;BMP_pressure;BME280_temperature;BME280_humidity;BME280_pressure;Samples;Min_cycle;Max_cycle;Signal;HPM_P1;HPM_P2
2021/12/18 00:00:14;;;;;;;27.60;15.30;;;1.60;99.90;;;;;;2081947;28;20201;-74
2021/12/18 00:01:16;;;;;;;26.58;14.77;;;1.60;99.90;;;;;;2082085;28;20430;-67
2021/12/18 00:02:17;;;;;;;28.13;13.82;;;1.60;99.90;;;;;;2081776;28;20183;-67
2021/12/18 00:03:18;;;;;;;30.53;16.17;;;1.70;99.90;;;;;;2081856;28;20177;-77
2021/12/18 00:04:18;;;;;;;28.90;15.00;;;1.60;99.90;;;;;;2073537;28;20419;-70
2021/12/18 00:05:19;;;;;;;26.27;14.00;;;1.60;99.90;;;;;;2081930;28;20196;-69
2021/12/18 00:06:21;;;;;;;24.87;13.30;;;1.60;99.90;;;;;;2081944;28;20571;-69
2021/12/18 00:07:22;;;;;;;26.60;15.23;;;1.60;99.90;;;;;;2081871;28;20181;-68
2021/12/18 00:08:23;;;;;;;24.00;13.17;;;1.60;99.90;;;;;;2081908;28;20245;-68
2021/12/18 00:09:30;;;;;;;24.70;14.00;;;1.50;99.90;;;;;;2082348;28;20167;-68
2021/12/18 00:10:31;;;;;;;25.90;14.52;;;1.60;99.90;;;;;;2081851;28;20259;-69
2021/12/18 00:11:32;;;;;;;36.97;14.97;;;1.60;99.90;;;;;;2081718;28;20519;-68
2021/12/18 00:12:33;;;;;;;37.53;16.45;;;1.70;99.90;;;;;;2081897;28;20707;-68
2021/12/18 00:13:34;;;;;;;32.10;15.90;;;1.70;99.90;;;;;;2081037;28;20204;-69
2021/12/18 00:14:34;;;;;;;40.53;19.17;;;1.70;99.90;;;;;;2081233;28;20193;-69
2021/12/18 00:15:35;;;;;;;30.33;16.53;;;1.80;99.90;;;;;;2082397;28;20176;-69
2021/12/18 00:16:36;;;;;;;25.80;15.10;;;1.80;99.90;;;;;;2082281;28;20181;-68
2021/12/18 00:17:36;;;;;;;27.63;14.67;;;1.80;99.90;;;;;;2081681;28;20166;-69
2021/12/18 00:18:37;;;;;;;32.93;17.33;;;1.80;99.80;;;;;;2082189;28;20193;-69
2021/12/18 00:19:39;;;;;;;29.17;14.80;;;1.80;99.80;;;;;;2081821;28;20170;-69
2021/12/18 00:20:40;;;;;;;34.05;16.88;;;1.80;99.90;;;;;;2081899;28;20169;-69
2021/12/18 00:21:40;;;;;;;34.80;17.53;;;1.70;99.90;;;;;;2082414;28;20254;-68
2021/12/18 00:22:43;;;;;;;30.90;15.30;;;1.70;99.90;;;;;;2078683;28;20165;-69
2021/12/18 00:23:44;;;;;;;27.58;14.70;;;1.70;99.90;;;;;;2073569;28;20249;-69
2021/12/18 00:24:44;;;;;;;28.33;15.33;;;1.70;99.90;;;;;;2065425;28;20173;-69
2021/12/18 00:25:45;;;;;;;24.57;14.00;;;1.70;99.70;;;;;;2073629;28;20573;-69
2021/12/18 00:26:47;;;;;;;26.83;14.35;;;1.60;99.70;;;;;;2074237;28;20220;-69
2021/12/18 00:27:48;;;;;;;25.27;14.00;;;1.60;99.70;;;;;;2074075;28;20219;-69
2021/12/18 00:28:49;;;;;;;25.88;14.18;;;1.50;99.50;;;;;;2074234;28;20202;-69
2021/12/18 00:29:50;;;;;;;24.73;14.03;;;1.50;99.50;;;;;;2074287;28;20163;-69
2021/12/18 00:30:50;;;;;;;27.60;14.20;;;1.50;99.60;;;;;;2074247;28;20174;-68
2021/12/18 00:31:51;;;;;;;24.80;13.57;;;1.40;99.60;;;;;;2074208;28;20194;-71
2021/12/18 00:32:53;;;;;;;26.67;14.55;;;1.40;99.60;;;;;;2073537;28;20163;-70
2021/12/18 00:33:54;;;;;;;27.25;14.85;;;1.50;99.60;;;;;;2065555;28;20630;-70
2021/12/18 00:34:54;;;;;;;29.80;16.00;;;1.50;99.60;;;;;;2065400;28;20251;-70
2021/12/18 00:35:55;;;;;;;28.93;15.33;;;1.40;99.90;;;;;;2073599;28;20695;-70
2021/12/18 00:36:55;;;;;;;29.23;14.30;;;1.40;99.90;;;;;;2073564;28;20807;-71
2021/12/18 00:37:56;;;;;;;26.20;15.33;;;1.40;99.90;;;;;;2073636;28;20184;-68
2021/12/18 00:38:57;;;;;;;25.00;14.13;;;1.50;99.80;;;;;;2074203;28;20215;-71
2021/12/18 00:40:00;;;;;;;29.00;16.07;;;1.50;99.70;;;;;;2073653;28;20176;-70
2021/12/18 00:42:58;;;;;;;27.85;15.15;;;1.60;99.40;;;;;;2073718;28;20267;-70
2021/12/18 00:43:34;;;;;;;24.50;13.75;;;1.60;99.30;;;;;;2066416;28;20670;-71
2021/12/18 00:44:36;;;;;;;26.13;13.98;;;1.70;99.10;;;;;;2068713;28;20301;-70
2021/12/18 00:45:36;;;;;;;25.60;13.88;;;1.70;99.00;;;;;;2073683;28;20183;-70
2021/12/18 00:46:42;;;;;;;29.47;15.30;;;1.70;99.00;;;;;;2074091;28;20175;-70
2021/12/18 00:47:46;;;;;;;29.40;15.43;;;1.70;98.90;;;;;;2073659;28;20176;-69
2021/12/18 00:48:47;;;;;;;31.75;17.02;;;1.70;98.90;;;;;;2073352;28;20226;-70
2021/12/18 00:49:47;;;;;;;29.20;15.27;;;1.70;99.10;;;;;;2073540;28;20206;-70
2021/12/18 00:50:49;;;;;;;26.90;15.20;;;1.60;99.10;;;;;;2074051;28;20166;-70
2021/12/18 00:51:50;;;;;;;29.42;15.35;;;1.70;99.00;;;;;;2072756;28;20536;-69
2021/12/18 00:52:51;;;;;;;27.80;14.98;;;1.70;98.90;;;;;;2065431;28;20209;-70
2021/12/18 00:53:52;;;;;;;30.52;17.10;;;1.70;98.80;;;;;;2065362;28;20171;-70
2021/12/18 00:54:52;;;;;;;27.00;15.03;;;1.50;99.40;;;;;;2073510;28;20262;-70
2021/12/18 00:55:53;;;;;;;36.07;18.43;;;1.40;99.60;;;;;;2073959;28;20548;-70
2021/12/18 00:56:54;;;;;;;32.87;15.50;;;1.40;99.90;;;;;;2073406;28;20176;-70
2021/12/18 00:57:54;;;;;;;26.87;15.67;;;1.20;99.90;;;;;;2073408;28;20166;-70
2021/12/18 00:58:55;;;;;;;27.13;13.93;;;1.10;99.90;;;;;;2065255;28;20665;-70
2021/12/18 01:00:00;;;;;;;26.97;15.77;;;1.10;99.90;;;;;;2073498;28;20626;-70
2021/12/18 01:01:06;;;;;;;28.20;15.65;;;1.20;99.90;;;;;;2074164;28;20210;-70
2021/12/18 01:02:07;;;;;;;28.17;14.75;;;1.20;99.90;;;;;;2074087;28;20734;-70
2021/12/18 01:03:16;;;;;;;29.00;16.95;;;1.20;99.90;;;;;;2073750;28;20225;-70
2021/12/18 01:04:18;;;;;;;28.20;15.38;;;1.20;99.90;;;;;;2073512;28;20183;-70
2021/12/18 01:05:19;;;;;;;28.48;14.75;;;1.20;99.90;;;;;;2065941;28;20217;-70
2021/12/18 01:06:21;;;;;;;27.23;15.03;;;1.20;99.90;;;;;;2073448;28;20281;-70
2021/12/18 01:07:23;;;;;;;33.38;17.25;;;1.30;99.90;;;;;;2073329;28;20188;-70
2021/12/18 01:08:24;;;;;;;27.25;15.40;;;1.30;99.90;;;;;;2073150;28;20308;-70
2021/12/18 01:09:44;;;;;;;29.03;15.40;;;1.30;99.90;;;;;;2073951;28;20179;-70
2021/12/18 01:11:14;;;;;;;27.00;13.85;;;1.30;99.90;;;;;;2073942;28;20222;-70
2021/12/18 01:12:14;;;;;;;28.00;15.32;;;1.30;99.70;;;;;;2073900;28;20630;-70
2021/12/18 01:13:20;;;;;;;25.03;14.53;;;1.20;99.50;;;;;;2073374;28;20181;-70
2021/12/18 01:15:38;;;;;;;26.73;14.75;;;1.10;99.60;;;;;;2073975;28;20193;-70
2021/12/18 01:16:53;;;;;;;25.80;14.18;;;1.10;99.50;;;;;;2073227;28;20569;-70
2021/12/18 01:23:05;;;;;;;27.10;14.15;;;0.70;99.90;;;;;;2073712;28;20206;-70
2021/12/18 01:24:06;;;;;;;32.93;16.57;;;0.70;99.90;;;;;;2073067;28;20688;-70
2021/12/18 01:25:08;;;;;;;36.65;17.50;;;0.70;99.90;;;;;;2073053;28;20174;-70
2021/12/18 01:26:09;;;;;;;38.22;17.55;;;0.70;99.90;;;;;;2065270;28;20573;-70
2021/12/18 01:27:10;;;;;;;31.00;16.27;;;0.70;99.90;;;;;;2073240;28;20213;-70
2021/12/18 01:28:10;;;;;;;32.93;17.87;;;0.70;99.90;;;;;;2073155;28;20221;-70
2021/12/18 01:29:11;;;;;;;29.73;15.47;;;0.80;99.90;;;;;;2073277;28;20206;-70
2021/12/18 01:30:14;;;;;;;33.23;15.27;;;0.80;99.90;;;;;;2073782;28;20578;-70
2021/12/18 01:31:14;;;;;;;32.90;17.40;;;0.80;99.90;;;;;;2079046;28;20173;-70
2021/12/18 01:32:15;;;;;;;29.87;15.90;;;0.90;99.90;;;;;;2081335;28;20235;-70
2021/12/18 01:33:16;;;;;;;31.25;14.63;;;0.90;99.90;;;;;;2081421;28;20220;-70
2021/12/18 01:34:17;;;;;;;27.67;15.40;;;1.00;99.90;;;;;;2081349;28;20239;-70
2021/12/18 01:35:18;;;;;;;31.10;15.03;;;1.10;99.90;;;;;;2081752;28;20177;-70
2021/12/18 01:36:21;;;;;;;29.08;15.27;;;1.10;99.90;;;;;;2081248;28;20177;-70
2021/12/18 01:37:22;;;;;;;31.88;16.80;;;1.10;99.90;;;;;;2081241;28;20559;-70
2021/12/18 01:38:24;;;;;;;31.58;16.58;;;1.20;99.90;;;;;;2081320;28;20185;-70
2021/12/18 01:39:24;;;;;;;29.33;15.43;;;1.20;99.90;;;;;;2081265;28;20189;-70
2021/12/18 01:40:26;;;;;;;27.67;14.73;;;1.20;99.90;;;;;;2081953;28;20609;-70
2021/12/18 01:41:34;;;;;;;27.58;15.20;;;1.30;99.90;;;;;;2081408;28;20706;-70
2021/12/18 01:51:17;;;;;;;33.28;17.25;;;1.20;99.80;;;;;;2081273;28;20170;-70
2021/12/18 01:52:23;;;;;;;30.70;15.65;;;1.10;99.90;;;;;;2081581;28;20182;-70
2021/12/18 01:53:23;;;;;;;32.05;16.08;;;1.00;99.90;;;;;;2081100;28;20673;-69
2021/12/18 01:54:25;;;;;;;47.13;18.03;;;0.90;99.90;;;;;;2081362;28;20196;-70
2021/12/18 01:55:30;;;;;;;37.85;17.65;;;0.80;99.90;;;;;;2072706;28;20187;-70
2021/12/18 01:56:31;;;;;;;29.67;14.80;;;0.80;99.90;;;;;;2066220;28;20188;-70
2021/12/18 01:57:32;;;;;;;35.63;17.20;;;0.80;99.90;;;;;;2075321;28;20269;-70
2021/12/18 01:58:33;;;;;;;48.35;16.73;;;0.80;99.90;;;;;;2073401;28;20210;-70
2021/12/18 01:59:43;;;;;;;45.53;19.97;;;0.80;99.90;;;;;;2073622;28;20528;-70
2021/12/18 02:00:43;;;;;;;35.40;16.83;;;0.80;99.90;;;;;;2073640;28;20174;-70
2021/12/18 02:01:44;;;;;;;46.73;19.80;;;0.80;99.90;;;;;;2064826;28;20613;-69
2021/12/18 02:02:45;;;;;;;43.03;20.57;;;0.90;99.90;;;;;;2064755;28;20220;-70
2021/12/18 02:03:47;;;;;;;44.13;19.83;;;1.00;99.90;;;;;;2072915;28;20190;-70
2021/12/18 02:04:47;;;;;;;78.30;20.27;;;1.00;99.90;;;;;;2072785;28;20175;-70
2021/12/18 02:05:50;;;;;;;50.10;23.07;;;1.10;99.90;;;;;;2073450;28;20210;-70
2021/12/18 02:06:51;;;;;;;50.90;21.73;;;1.10;99.90;;;;;;2072944;28;20236;-70
2021/12/18 02:07:52;;;;;;;66.20;25.63;;;1.10;99.90;;;;;;2072780;28;20684;-70
2021/12/18 02:08:53;;;;;;;61.13;26.17;;;1.20;99.90;;;;;;2072697;28;20830;-70
2021/12/18 02:10:08;;;;;;;41.70;19.50;;;1.20;99.90;;;;;;2072835;28;20273;-70
2021/12/18 02:11:22;;;;;;;42.90;21.27;;;1.30;99.90;;;;;;2073552;28;20551;-70
2021/12/18 02:12:30;;;;;;;103.97;21.60;;;1.30;99.90;;;;;;2073424;28;20236;-70
2021/12/18 02:19:33;;;;;;;77.23;20.73;;;1.30;99.90;;;;;;2072774;28;20664;-70
2021/12/18 02:21:28;;;;;;;78.35;19.83;;;1.30;99.90;;;;;;2073500;28;20192;-70
2021/12/18 02:22:29;;;;;;;70.75;20.70;;;1.30;99.90;;;;;;2073371;28;20180;-70
2021/12/18 02:23:29;;;;;;;73.20;21.42;;;1.30;99.90;;;;;;2072781;28;20236;-70
2021/12/18 02:24:32;;;;;;;73.50;18.40;;;1.30;99.90;;;;;;2072769;28;20268;-69
2021/12/18 02:25:35;;;;;;;94.22;21.95;;;1.30;99.90;;;;;;2073305;28;20193;-70
2021/12/18 02:26:36;;;;;;;105.70;21.30;;;1.30;99.90;;;;;;2072773;28;20233;-70
2021/12/18 02:27:37;;;;;;;143.27;23.90;;;1.30;99.90;;;;;;2064851;28;20278;-70
2021/12/18 02:28:39;;;;;;;206.73;33.10;;;1.30;99.90;;;;;;2072692;28;20208;-70
2021/12/18 02:29:41;;;;;;;357.45;43.88;;;1.20;99.90;;;;;;2073375;28;20194;-70
2021/12/18 02:30:42;;;;;;;364.17;46.22;;;1.20;99.90;;;;;;2072661;28;20214;-70
2021/12/18 02:31:45;;;;;;;98.57;22.55;;;1.20;99.90;;;;;;2072808;28;20244;-70
2021/12/18 02:32:45;;;;;;;289.38;33.13;;;1.20;99.90;;;;;;2072740;28;20172;-70
2021/12/18 02:33:47;;;;;;;329.13;41.57;;;1.20;99.90;;;;;;2072839;28;20177;-69
2021/12/18 02:34:53;;;;;;;143.18;22.10;;;1.00;99.90;;;;;;2073188;28;20217;-71
2021/12/18 02:35:57;;;;;;;307.90;37.55;;;1.00;99.90;;;;;;2072765;28;20178;-70
2021/12/18 02:37:05;;;;;;;202.00;30.52;;;1.00;99.90;;;;;;2072661;28;20174;-69
2021/12/18 02:38:16;;;;;;;142.02;27.65;;;1.10;99.90;;;;;;2074139;28;20259;-70
2021/12/18 02:39:24;;;;;;;225.48;26.20;;;1.00;99.90;;;;;;2073062;28;20205;-70
2021/12/18 02:42:07;;;;;;;225.65;26.95;;;1.00;99.90;;;;;;2068459;28;20182;-69
2021/12/18 02:43:08;;;;;;;125.13;20.80;;;0.90;99.90;;;;;;2072993;28;20186;-70
2021/12/18 02:44:12;;;;;;;214.13;29.17;;;0.90;99.90;;;;;;2072713;28;20535;-70
2021/12/18 02:45:13;;;;;;;142.77;26.30;;;1.00;99.90;;;;;;2072729;28;20188;-69
2021/12/18 02:46:19;;;;;;;207.60;25.33;;;1.00;99.90;;;;;;2072824;28;20671;-70
2021/12/18 02:47:20;;;;;;;106.43;20.27;;;1.10;99.90;;;;;;2072700;28;20607;-69
2021/12/18 02:48:21;;;;;;;241.00;31.63;;;1.10;99.90;;;;;;2072563;28;20293;-69
2021/12/18 02:49:22;;;;;;;226.70;28.40;;;1.10;99.90;;;;;;2072779;28;20225;-70
2021/12/18 02:50:22;;;;;;;206.60;23.97;;;1.10;99.90;;;;;;2072789;28;20601;-69
2021/12/18 02:51:24;;;;;;;305.83;32.53;;;1.10;99.90;;;;;;2073263;28;20179;-70
2021/12/18 02:52:31;;;;;;;166.55;21.67;;;1.10;99.90;;;;;;2073252;28;20185;-69
2021/12/18 02:53:34;;;;;;;124.72;20.95;;;1.20;99.90;;;;;;2073465;28;20181;-70
2021/12/18 02:54:41;;;;;;;203.45;25.83;;;1.20;99.90;;;;;;2072609;28;20182;-69
2021/12/18 02:55:42;;;;;;;143.70;21.00;;;1.20;99.90;;;;;;2065605;28;20175;-69
2021/12/18 02:56:42;;;;;;;163.43;26.70;;;1.20;99.90;;;;;;2072590;28;20202;-69
2021/12/18 02:57:43;;;;;;;187.47;25.87;;;1.20;99.90;;;;;;2073187;28;20175;-69
2021/12/18 02:58:47;;;;;;;421.33;43.50;;;1.20;99.90;;;;;;2073372;28;20685;-69
2021/12/18 02:59:51;;;;;;;495.85;60.00;;;1.20;99.90;;;;;;2072613;28;20188;-69
2021/12/18 03:00:54;;;;;;;303.73;35.63;;;1.20;99.90;;;;;;2065037;28;20648;-69
2021/12/18 03:02:01;;;;;;;251.05;30.48;;;1.20;99.90;;;;;;2072469;28;20161;-69
2021/12/18 03:03:08;;;;;;;435.70;46.17;;;1.10;99.90;;;;;;2073088;28;20181;-69
2021/12/18 03:04:20;;;;;;;463.80;53.38;;;1.00;99.90;;;;;;2073121;28;20175;-69
2021/12/18 03:05:28;;;;;;;159.20;25.88;;;1.00;99.90;;;;;;2072493;28;20272;-69
2021/12/18 03:06:37;;;;;;;288.25;37.33;;;1.10;99.90;;;;;;2072602;28;20186;-69
2021/12/18 03:07:38;;;;;;;122.70;22.15;;;1.20;99.90;;;;;;2072590;28;20193;-70
2021/12/18 03:09:18;;;;;;;97.23;20.80;;;1.20;99.90;;;;;;2072467;28;20193;-69
2021/12/18 03:25:23;;;;;;;107.70;21.80;;;1.00;99.90;;;;;;2072926;28;20812;-69
2021/12/18 03:26:23;;;;;;;100.28;20.20;;;1.00;99.90;;;;;;2073175;28;20656;-69
2021/12/18 03:27:25;;;;;;;39.83;15.73;;;1.00;99.90;;;;;;2072913;28;20180;-69
2021/12/18 03:28:28;;;;;;;63.00;18.00;;;1.00;99.90;;;;;;2072272;28;20700;-69
2021/12/18 03:29:29;;;;;;;68.78;17.98;;;1.00;99.90;;;;;;2072291;28;20186;-69
2021/12/18 03:30:30;;;;;;;45.00;16.93;;;1.00;99.90;;;;;;2077357;28;20220;-69
2021/12/18 03:31:33;;;;;;;49.35;18.52;;;1.00;99.90;;;;;;2080531;28;20224;-70
2021/12/18 03:32:33;;;;;;;35.78;13.27;;;1.00;99.90;;;;;;2080213;28;20181;-69
2021/12/18 03:33:34;;;;;;;25.43;13.43;;;1.00;99.90;;;;;;2081183;28;20177;-69
2021/12/18 03:34:35;;;;;;;25.77;12.57;;;0.90;99.90;;;;;;2081037;28;20179;-70
2021/12/18 03:35:36;;;;;;;31.67;15.83;;;0.80;99.90;;;;;;2080473;28;20181;-69
2021/12/18 03:36:36;;;;;;;32.53;15.07;;;0.80;99.90;;;;;;2080488;28;20597;-69
2021/12/18 03:37:38;;;;;;;28.53;14.67;;;0.80;99.90;;;;;;2081246;28;20539;-69
2021/12/18 03:38:39;;;;;;;38.70;15.60;;;0.80;99.90;;;;;;2080565;28;20580;-69
2021/12/18 03:39:39;;;;;;;33.17;15.70;;;0.70;99.90;;;;;;2080392;28;20169;-69
2021/12/18 03:40:40;;;;;;;25.47;13.47;;;0.70;99.90;;;;;;2081250;28;20243;-70
2021/12/18 03:41:41;;;;;;;32.70;14.80;;;0.70;99.90;;;;;;2081148;28;20166;-70
2021/12/18 03:42:42;;;;;;;36.10;16.60;;;0.70;99.90;;;;;;2080560;28;20165;-69
2021/12/18 03:43:43;;;;;;;37.03;15.77;;;0.70;99.90;;;;;;2080426;28;20584;-69
2021/12/18 03:44:44;;;;;;;28.37;14.50;;;0.70;99.90;;;;;;2081127;28;20269;-69
2021/12/18 03:45:44;;;;;;;38.40;17.57;;;0.70;99.90;;;;;;2081078;28;20197;-69
2021/12/18 03:46:45;;;;;;;32.60;15.37;;;0.70;99.90;;;;;;2081092;28;20166;-69
2021/12/18 03:47:49;;;;;;;41.70;18.33;;;0.70;99.90;;;;;;2081010;28;20166;-69
2021/12/18 03:48:50;;;;;;;33.95;16.70;;;0.70;99.90;;;;;;2081171;28;20176;-69
2021/12/18 03:49:50;;;;;;;36.03;16.33;;;0.70;99.90;;;;;;2081089;28;20590;-70
2021/12/18 03:50:52;;;;;;;33.83;15.97;;;0.60;99.90;;;;;;2080410;28;20169;-69
2021/12/18 03:51:53;;;;;;;34.95;16.48;;;0.60;99.90;;;;;;2080456;28;20444;-69
2021/12/18 03:52:55;;;;;;;36.03;17.00;;;0.60;99.90;;;;;;2081128;28;20169;-69
2021/12/18 03:53:56;;;;;;;41.42;18.40;;;0.60;99.90;;;;;;2080475;28;20172;-69
2021/12/18 03:54:59;;;;;;;37.47;17.17;;;0.60;99.90;;;;;;2080279;28;20165;-69
2021/12/18 03:56:00;;;;;;;34.53;15.90;;;0.70;99.90;;;;;;2080978;28;20173;-69
2021/12/18 03:57:01;;;;;;;37.50;16.15;;;0.60;99.90;;;;;;2081148;28;20188;-70
2021/12/18 03:58:02;;;;;;;35.90;16.08;;;0.70;99.90;;;;;;2080302;28;20256;-69
2021/12/18 03:59:03;;;;;;;50.53;18.73;;;0.60;99.90;;;;;;2072201;28;20208;-70
2021/12/18 04:00:10;;;;;;;48.97;18.57;;;0.60;99.90;;;;;;2072227;28;20281;-69
2021/12/18 04:01:11;;;;;;;51.15;20.52;;;0.60;99.90;;;;;;2072988;28;20292;-69
2021/12/18 04:02:11;;;;;;;38.17;15.73;;;0.60;99.90;;;;;;2080248;28;20188;-69
2021/12/18 04:03:12;;;;;;;40.03;17.57;;;0.60;99.90;;;;;;2080949;28;20189;-69
2021/12/18 04:04:13;;;;;;;41.87;16.27;;;0.50;99.90;;;;;;2080947;28;20181;-69
2021/12/18 04:05:14;;;;;;;33.90;17.23;;;0.50;99.90;;;;;;2080905;28;20174;-69
2021/12/18 04:06:15;;;;;;;40.93;18.70;;;0.50;99.90;;;;;;2080842;28;20196;-69
2021/12/18 04:07:15;;;;;;;42.97;18.77;;;0.50;99.90;;;;;;2079213;28;20725;-69
2021/12/18 04:08:16;;;;;;;37.53;16.40;;;0.50;99.90;;;;;;2073526;28;20205;-69
2021/12/18 04:09:17;;;;;;;51.43;17.67;;;0.50;99.90;;;;;;2072120;28;20225;-69
2021/12/18 04:10:18;;;;;;;40.40;17.73;;;0.40;99.90;;;;;;2072429;28;20181;-69
2021/12/18 04:11:20;;;;;;;33.17;14.25;;;0.50;99.90;;;;;;2072750;28;20178;-69
2021/12/18 04:12:21;;;;;;;31.95;15.43;;;0.40;99.90;;;;;;2072242;28;20216;-69
2021/12/18 04:13:22;;;;;;;30.17;14.70;;;0.30;99.90;;;;;;2072154;28;20193;-69
2021/12/18 04:14:22;;;;;;;30.63;15.00;;;0.30;99.90;;;;;;2072194;28;20178;-70
2021/12/18 04:15:23;;;;;;;33.13;14.90;;;0.30;99.90;;;;;;2071982;28;20198;-69
2021/12/18 04:16:24;;;;;;;34.53;15.70;;;0.30;99.90;;;;;;2072730;28;20552;-69
2021/12/18 04:17:24;;;;;;;28.47;14.27;;;0.30;99.90;;;;;;2072002;28;20217;-69
2021/12/18 04:18:25;;;;;;;29.53;15.33;;;0.30;99.90;;;;;;2072095;28;20186;-69
2021/12/18 04:19:26;;;;;;;32.57;15.07;;;0.30;99.90;;;;;;2072618;28;20233;-69
2021/12/18 04:20:27;;;;;;;32.80;16.10;;;0.30;99.90;;;;;;2072184;28;20181;-69
2021/12/18 04:21:32;;;;;;;26.37;13.47;;;0.30;99.90;;;;;;2072152;28;20203;-69
2021/12/18 04:22:33;;;;;;;34.45;15.80;;;0.30;99.90;;;;;;2064785;28;20180;-69
2021/12/18 04:23:35;;;;;;;32.27;15.53;;;0.30;99.90;;;;;;2064026;28;20504;-69
2021/12/18 04:24:35;;;;;;;30.67;14.90;;;0.30;99.90;;;;;;2064018;28;20187;-69
2021/12/18 04:25:36;;;;;;;32.77;16.20;;;0.30;99.90;;;;;;2072230;28;20178;-70
2021/12/18 04:26:37;;;;;;;30.37;15.23;;;0.30;99.90;;;;;;2072239;28;20201;-69
2021/12/18 04:27:37;;;;;;;27.70;14.13;;;0.20;99.90;;;;;;2073759;28;20171;-69
2021/12/18 04:28:38;;;;;;;31.63;14.60;;;0.20;99.90;;;;;;2074117;28;20711;-69
2021/12/18 04:29:39;;;;;;;27.83;13.93;;;0.20;99.90;;;;;;2074247;28;20173;-69
2021/12/18 04:30:39;;;;;;;30.13;15.13;;;0.20;99.90;;;;;;2074320;28;20578;-69
2021/12/18 04:31:40;;;;;;;34.37;16.13;;;0.20;99.90;;;;;;2074224;28;20520;-70
2021/12/18 04:32:41;;;;;;;29.80;14.63;;;0.20;99.90;;;;;;2074262;28;20169;-69
2021/12/18 04:33:42;;;;;;;31.47;15.27;;;0.20;99.90;;;;;;2073467;28;20174;-69
2021/12/18 04:34:42;;;;;;;35.58;15.50;;;0.30;99.90;;;;;;2073546;28;20166;-69
2021/12/18 04:35:43;;;;;;;26.10;14.07;;;0.30;99.90;;;;;;2074114;28;20174;-69
2021/12/18 04:36:44;;;;;;;30.63;15.32;;;0.30;99.90;;;;;;2074063;28;20253;-69
2021/12/18 04:37:45;;;;;;;27.43;12.67;;;0.30;99.90;;;;;;2073453;28;20738;-69
2021/12/18 04:38:45;;;;;;;29.03;14.77;;;0.30;99.90;;;;;;2073413;28;20747;-69
2021/12/18 04:39:46;;;;;;;26.37;13.60;;;0.40;99.90;;;;;;2073425;28;20552;-70
2021/12/18 04:40:49;;;;;;;26.77;13.57;;;0.40;99.90;;;;;;2073550;28;20166;-69
2021/12/18 04:41:57;;;;;;;26.42;13.60;;;0.40;99.90;;;;;;2073473;28;20549;-69
2021/12/18 04:42:57;;;;;;;31.20;13.65;;;0.30;99.90;;;;;;2074113;28;20215;-69
2021/12/18 04:43:58;;;;;;;29.47;15.13;;;0.20;99.90;;;;;;2073359;28;20177;-69
2021/12/18 04:44:59;;;;;;;40.43;16.30;;;0.20;99.90;;;;;;2073364;28;20170;-69
2021/12/18 04:45:59;;;;;;;28.63;14.53;;;0.20;99.90;;;;;;2073432;28;20189;-69
2021/12/18 04:47:00;;;;;;;32.53;15.43;;;0.20;99.90;;;;;;2073921;28;20660;-69
2021/12/18 04:48:01;;;;;;;25.83;14.17;;;0.20;99.90;;;;;;2073271;28;20791;-69
2021/12/18 04:49:02;;;;;;;32.50;16.17;;;0.20;99.90;;;;;;2073328;28;20237;-70
2021/12/18 04:50:04;;;;;;;52.17;19.70;;;0.30;99.90;;;;;;2073997;28;20174;-69
2021/12/18 04:51:05;;;;;;;94.47;25.95;;;0.30;99.90;;;;;;2073359;28;20189;-69
2021/12/18 04:52:06;;;;;;;45.83;16.77;;;0.30;99.90;;;;;;2073335;28;20208;-69
2021/12/18 04:53:07;;;;;;;43.13;15.18;;;0.30;99.90;;;;;;2073394;28;20204;-69
2021/12/18 04:54:08;;;;;;;72.40;22.50;;;0.40;99.90;;;;;;2073387;28;20732;-69
2021/12/18 04:55:09;;;;;;;34.50;16.98;;;0.40;99.90;;;;;;2073748;28;20528;-69
2021/12/18 04:56:10;;;;;;;43.03;17.63;;;0.40;99.90;;;;;;2073449;28;20195;-69
2021/12/18 04:57:11;;;;;;;30.60;13.93;;;0.40;99.90;;;;;;2073268;28;20181;-69
2021/12/18 04:58:12;;;;;;;95.95;22.20;;;0.40;99.90;;;;;;2073972;28;20200;-69
2021/12/18 04:59:13;;;;;;;60.73;17.67;;;0.30;99.90;;;;;;2073855;28;20289;-69
2021/12/18 05:00:20;;;;;;;68.50;19.03;;;0.20;99.90;;;;;;2073864;28;20177;-69
2021/12/18 05:01:20;;;;;;;39.53;16.65;;;0.20;99.90;;;;;;2073433;28;20444;-69
2021/12/18 05:02:25;;;;;;;64.73;22.30;;;0.10;99.90;;;;;;2073343;28;20606;-69
2021/12/18 05:03:26;;;;;;;40.17;17.27;;;0.00;99.90;;;;;;2073279;28;20185;-69
2021/12/18 05:04:26;;;;;;;34.13;15.37;;;0.10;99.90;;;;;;2073377;28;20177;-69
2021/12/18 05:05:27;;;;;;;34.50;15.53;;;0.10;99.90;;;;;;2073685;28;20181;-69
2021/12/18 05:06:29;;;;;;;30.13;13.57;;;0.10;99.90;;;;;;2073886;28;20193;-68
2021/12/18 05:07:30;;;;;;;30.65;14.57;;;0.10;99.90;;;;;;2073760;28;20182;-69
2021/12/18 05:08:31;;;;;;;27.25;13.50;;;0.10;99.90;;;;;;2073079;28;20236;-69
2021/12/18 05:09:32;;;;;;;31.60;14.43;;;0.20;99.90;;;;;;2073178;28;20632;-69
2021/12/18 05:10:33;;;;;;;24.30;12.27;;;0.10;99.90;;;;;;2073752;28;20261;-69
2021/12/18 05:11:33;;;;;;;28.47;14.80;;;0.10;99.90;;;;;;2073778;28;20616;-69
2021/12/18 05:12:34;;;;;;;39.30;15.63;;;0.10;99.90;;;;;;2073829;28;20429;-70
2021/12/18 05:13:35;;;;;;;25.33;11.85;;;0.00;99.90;;;;;;2073173;28;20209;-69
2021/12/18 05:14:36;;;;;;;24.37;13.03;;;0.00;99.90;;;;;;2073143;28;20562;-69
2021/12/18 05:15:37;;;;;;;27.63;13.27;;;-0.10;99.90;;;;;;2073199;28;20640;-69
2021/12/18 05:16:38;;;;;;;27.40;13.80;;;-0.10;99.90;;;;;;2073085;28;20405;-69
2021/12/18 05:17:38;;;;;;;25.95;12.75;;;0.00;99.90;;;;;;2073115;28;20165;-69
2021/12/18 05:18:39;;;;;;;27.70;13.47;;;0.00;99.90;;;;;;2073130;28;20204;-69
2021/12/18 05:19:40;;;;;;;26.27;12.87;;;0.00;99.90;;;;;;2073099;28;20195;-69
2021/12/18 05:20:40;;;;;;;24.60;11.67;;;0.00;99.90;;;;;;2073190;28;20811;-69
2021/12/18 05:21:41;;;;;;;26.50;12.73;;;-0.10;99.90;;;;;;2064904;28;20731;-69
2021/12/18 05:22:42;;;;;;;24.90;12.10;;;-0.10;99.90;;;;;;2073171;28;20170;-69
2021/12/18 05:23:43;;;;;;;25.98;12.63;;;0.00;99.90;;;;;;2073125;28;20177;-69
2021/12/18 05:24:43;;;;;;;28.57;12.83;;;0.00;99.90;;;;;;2073057;28;20170;-69
2021/12/18 05:25:44;;;;;;;27.80;12.83;;;0.00;99.90;;;;;;2073068;28;20163;-69
2021/12/18 05:26:45;;;;;;;28.80;13.07;;;-0.10;99.90;;;;;;2072948;28;20780;-69
2021/12/18 05:27:45;;;;;;;29.80;13.10;;;-0.10;99.90;;;;;;2073552;28;20170;-69
2021/12/18 05:28:46;;;;;;;25.33;12.43;;;-0.10;99.90;;;;;;2072873;28;20185;-69
2021/12/18 05:29:47;;;;;;;25.33;11.93;;;-0.20;99.90;;;;;;2064956;28;20170;-68
2021/12/18 05:30:47;;;;;;;24.53;12.27;;;-0.20;99.90;;;;;;2073162;28;20220;-69
2021/12/18 05:31:48;;;;;;;28.80;12.70;;;-0.10;99.90;;;;;;2073627;28;20163;-69
2021/12/18 05:32:49;;;;;;;24.35;11.40;;;-0.10;99.90;;;;;;2073070;28;20158;-69
2021/12/18 05:33:54;;;;;;;30.67;13.73;;;-0.20;99.90;;;;;;2073072;28;20210;-69
2021/12/18 05:34:54;;;;;;;27.55;11.88;;;-0.20;99.90;;;;;;2073446;28;20284;-69
2021/12/18 05:35:55;;;;;;;28.63;13.73;;;-0.30;99.90;;;;;;2079844;28;20169;-69
2021/12/18 05:38:04;;;;;;;29.43;13.90;;;-0.30;99.90;;;;;;2080824;28;20586;-70
2021/12/18 05:39:09;;;;;;;29.00;11.95;;;-0.30;99.90;;;;;;2081294;28;20189;-69
2021/12/18 05:40:13;;;;;;;31.83;13.63;;;-0.30;99.90;;;;;;2081800;28;20200;-69
2021/12/18 05:41:13;;;;;;;52.80;17.67;;;-0.40;99.90;;;;;;2081247;28;20198;-69
2021/12/18 05:42:15;;;;;;;41.10;15.33;;;-0.50;99.90;;;;;;2081167;28;20181;-69
2021/12/18 05:43:16;;;;;;;30.52;13.15;;;-0.50;99.90;;;;;;2081127;28;20188;-69
2021/12/18 05:44:18;;;;;;;28.73;12.43;;;-0.50;99.90;;;;;;2072968;28;20174;-69
2021/12/18 05:45:20;;;;;;;35.53;14.63;;;-0.50;99.90;;;;;;2073147;28;20707;-69
2021/12/18 05:46:21;;;;;;;31.77;10.93;;;-0.50;99.90;;;;;;2081147;28;20189;-69
2021/12/18 05:47:21;;;;;;;35.43;13.07;;;-0.60;99.90;;;;;;2081671;28;20177;-69
2021/12/18 05:48:22;;;;;;;26.77;12.47;;;-0.50;99.90;;;;;;2081439;28;20217;-69
2021/12/18 05:49:23;;;;;;;32.30;14.30;;;-0.50;99.90;;;;;;2081163;28;20239;-69
2021/12/18 05:50:28;;;;;;;37.70;15.17;;;-0.50;99.90;;;;;;2081275;28;20663;-69
2021/12/18 05:51:32;;;;;;;22.60;11.27;;;-0.50;99.90;;;;;;2081749;28;20192;-69
2021/12/18 05:52:33;;;;;;;29.40;12.82;;;-0.60;99.90;;;;;;2081060;28;20185;-69
2021/12/18 05:53:33;;;;;;;29.35;12.68;;;-0.50;99.90;;;;;;2072925;28;20174;-69
2021/12/18 05:54:36;;;;;;;29.00;13.37;;;-0.50;99.90;;;;;;2080994;28;20181;-69
2021/12/18 05:55:36;;;;;;;24.38;12.05;;;-0.50;99.90;;;;;;2081094;28;20561;-69
2021/12/18 05:56:38;;;;;;;29.10;12.67;;;-0.60;99.90;;;;;;2081122;28;20227;-69
2021/12/18 05:57:38;;;;;;;28.60;12.63;;;-0.50;99.90;;;;;;2081032;28;20166;-69
2021/12/18 05:58:41;;;;;;;27.20;13.03;;;-0.60;99.90;;;;;;2080968;28;20281;-69